sensor_id;sensor_type;location;lat;lon;timestamp;pressure;altitude;pressure_sealevel;temperature;humidity
4598;BME280;62772;48.646;8.906;2022-09-19T00:00:26;96294.81;;;6.72;100.00
4598;BME280;62772;48.646;8.906;2022-09-19T00:05:27;96281.50;;;6.78;100.00
4598;BME280;62772;48.646;8.906;2022-09-19T00:10:27;96296.31;;;6.79;100.00
4598;BME280;62772;48.646;8.906;2022-09-19T00:15:31;96314.69;;;6.75;100.00
4598;BME280;62772;48.646;8.906;2022-09-19T00:20:38;96306.38;;;7.01;100.00
4598;BME280;62772;48.646;8.906;2022-09-19T00:25:39;96311.09;;;6.66;100.00
4598;BME280;62772;48.646;8.906;2022-09-19T00:30:44;96312.59;;;6.72;100.00
4598;BME280;62772;48.646;8.906;2022-09-19T00:35:44;96318.06;;;6.62;100.00
4598;BME280;62772;48.646;8.906;2022-09-19T00:40:45;96342.78;;;7.00;100.00
4598;BME280;62772;48.646;8.906;2022-09-19T00:45:48;96333.84;;;6.48;100.00
4598;BME280;62772;48.646;8.906;2022-09-19T00:50:51;96329.88;;;6.69;100.00
4598;BME280;62772;48.646;8.906;2022-09-19T00:55:54;96334.47;;;6.64;100.00
4598;BME280;62772;48.646;8.906;2022-09-19T01:00:58;96343.16;;;6.45;100.00
4598;BME280;62772;48.646;8.906;2022-09-19T01:06:08;96354.22;;;6.28;100.00
4598;BME280;62772;48.646;8.906;2022-09-19T01:11:27;96355.78;;;6.53;100.00
4598;BME280;62772;48.646;8.906;2022-09-19T01:16:39;96363.75;;;6.53;100.00
4598;BME280;62772;48.646;8.906;2022-09-19T01:21:47;96358.25;;;6.93;100.00
4598;BME280;62772;48.646;8.906;2022-09-19T01:27:05;96363.94;;;7.05;100.00
4598;BME280;62772;48.646;8.906;2022-09-19T01:32:15;96372.66;;;6.87;100.00
4598;BME280;62772;48.646;8.906;2022-09-19T01:37:22;96370.28;;;6.85;100.00
4598;BME280;62772;48.646;8.906;2022-09-19T01:42:28;96374.97;;;7.18;100.00
4598;BME280;62772;48.646;8.906;2022-09-19T01:47:40;96368.63;;;7.33;100.00
4598;BME280;62772;48.646;8.906;2022-09-19T01:52:53;96377.47;;;7.28;100.00
4598;BME280;62772;48.646;8.906;2022-09-19T01:58:16;96383.88;;;7.27;100.00
4598;BME280;62772;48.646;8.906;2022-09-19T02:03:28;96380.47;;;7.21;100.00
4598;BME280;62772;48.646;8.906;2022-09-19T02:08:39;96384.47;;;7.19;100.00
4598;BME280;62772;48.646;8.906;2022-09-19T02:13:46;96396.34;;;7.26;100.00
4598;BME280;62772;48.646;8.906;2022-09-19T02:18:55;96397.28;;;7.17;100.00
4598;BME280;62772;48.646;8.906;2022-09-19T02:24:00;96391.47;;;7.15;100.00
4598;BME280;62772;48.646;8.906;2022-09-19T02:29:08;96397.53;;;6.96;100.00
4598;BME280;62772;48.646;8.906;2022-09-19T02:34:12;96413.63;;;6.81;100.00
4598;BME280;62772;48.646;8.906;2022-09-19T02:39:18;96415.50;;;6.80;100.00
4598;BME280;62772;48.646;8.906;2022-09-19T02:44:34;96410.97;;;6.81;100.00
4598;BME280;62772;48.646;8.906;2022-09-19T02:49:47;96413.88;;;6.84;100.00
4598;BME280;62772;48.646;8.906;2022-09-19T02:54:54;96411.59;;;6.72;100.00
4598;BME280;62772;48.646;8.906;2022-09-19T03:00:00;96420.41;;;6.68;100.00
4598;BME280;62772;48.646;8.906;2022-09-19T03:05:10;96420.28;;;6.54;100.00
4598;BME280;62772;48.646;8.906;2022-09-19T03:10:14;96420.50;;;6.58;100.00
4598;BME280;62772;48.646;8.906;2022-09-19T03:15:55;96420.03;;;5.87;100.00
4598;BME280;62772;48.646;8.906;2022-09-19T03:21:10;96424.22;;;5.98;100.00
4598;BME280;62772;48.646;8.906;2022-09-19T03:26:18;96426.22;;;5.72;100.00
4598;BME280;62772;48.646;8.906;2022-09-19T03:31:20;96428.38;;;6.09;100.00
4598;BME280;62772;48.646;8.906;2022-09-19T03:36:26;96438.91;;;5.80;100.00
4598;BME280;62772;48.646;8.906;2022-09-19T03:41:29;96441.38;;;6.11;100.00
4598;BME280;62772;48.646;8.906;2022-09-19T03:46:35;96441.53;;;6.20;100.00
4598;BME280;62772;48.646;8.906;2022-09-19T03:51:39;96441.94;;;6.03;100.00
4598;BME280;62772;48.646;8.906;2022-09-19T03:56:42;96449.94;;;5.97;100.00
4598;BME280;62772;48.646;8.906;2022-09-19T04:01:44;96444.66;;;5.92;100.00
4598;BME280;62772;48.646;8.906;2022-09-19T04:06:47;96445.69;;;5.96;100.00
4598;BME280;62772;48.646;8.906;2022-09-19T04:11:49;96446.16;;;5.64;100.00
4598;BME280;62772;48.646;8.906;2022-09-19T04:16:50;96442.91;;;5.72;100.00
4598;BME280;62772;48.646;8.906;2022-09-19T04:21:53;96453.09;;;5.94;100.00
4598;BME280;62772;48.646;8.906;2022-09-19T04:27:02;96452.31;;;5.94;100.00
4598;BME280;62772;48.646;8.906;2022-09-19T04:32:10;96451.09;;;6.21;100.00
4598;BME280;62772;48.646;8.906;2022-09-19T04:37:14;96456.03;;;5.93;100.00
4598;BME280;62772;48.646;8.906;2022-09-19T04:42:19;96450.34;;;6.15;100.00
4598;BME280;62772;48.646;8.906;2022-09-19T04:47:20;96453.84;;;6.05;100.00
4598;BME280;62772;48.646;8.906;2022-09-19T04:52:24;96467.34;;;5.64;100.00
4598;BME280;62772;48.646;8.906;2022-09-19T04:57:27;96468.44;;;6.03;100.00
4598;BME280;62772;48.646;8.906;2022-09-19T05:02:31;96481.75;;;5.92;100.00
4598;BME280;62772;48.646;8.906;2022-09-19T05:07:36;96484.97;;;5.89;100.00
4598;BME280;62772;48.646;8.906;2022-09-19T05:12:40;96493.66;;;5.95;100.00
4598;BME280;62772;48.646;8.906;2022-09-19T05:17:42;96496.34;;;5.90;100.00
4598;BME280;62772;48.646;8.906;2022-09-19T05:22:46;96494.72;;;5.99;100.00
4598;BME280;62772;48.646;8.906;2022-09-19T05:27:47;96506.41;;;5.93;100.00
4598;BME280;62772;48.646;8.906;2022-09-19T05:32:48;96506.13;;;5.99;100.00
4598;BME280;62772;48.646;8.906;2022-09-19T05:38:08;96518.09;;;6.31;100.00
4598;BME280;62772;48.646;8.906;2022-09-19T05:43:35;96521.06;;;6.25;100.00
4598;BME280;62772;48.646;8.906;2022-09-19T05:48:36;96522.16;;;6.18;100.00
4598;BME280;62772;48.646;8.906;2022-09-19T05:53:43;96528.44;;;6.33;100.00
4598;BME280;62772;48.646;8.906;2022-09-19T05:59:18;96534.50;;;6.39;100.00
4598;BME280;62772;48.646;8.906;2022-09-19T06:04:22;96536.31;;;6.43;100.00
4598;BME280;62772;48.646;8.906;2022-09-19T06:09:29;96551.91;;;6.50;100.00
4598;BME280;62772;48.646;8.906;2022-09-19T06:14:33;96550.50;;;6.63;100.00
4598;BME280;62772;48.646;8.906;2022-09-19T06:19:39;96557.47;;;6.53;100.00
4598;BME280;62772;48.646;8.906;2022-09-19T06:24:51;96562.66;;;6.69;100.00
4598;BME280;62772;48.646;8.906;2022-09-19T06:29:53;96564.44;;;6.79;100.00
4598;BME280;62772;48.646;8.906;2022-09-19T06:35:17;96568.34;;;6.86;100.00
4598;BME280;62772;48.646;8.906;2022-09-19T06:40:22;96574.31;;;6.73;100.00
4598;BME280;62772;48.646;8.906;2022-09-19T06:45:47;96577.78;;;6.98;100.00
4598;BME280;62772;48.646;8.906;2022-09-19T06:51:17;96591.16;;;7.17;100.00
4598;BME280;62772;48.646;8.906;2022-09-19T06:56:20;96588.63;;;7.06;100.00
4598;BME280;62772;48.646;8.906;2022-09-19T07:01:21;96580.31;;;7.13;100.00
4598;BME280;62772;48.646;8.906;2022-09-19T07:06:25;96589.94;;;7.33;100.00
4598;BME280;62772;48.646;8.906;2022-09-19T07:11:40;96592.78;;;7.42;100.00
4598;BME280;62772;48.646;8.906;2022-09-19T07:16:42;96598.94;;;7.37;100.00
4598;BME280;62772;48.646;8.906;2022-09-19T07:21:43;96592.91;;;7.56;100.00
4598;BME280;62772;48.646;8.906;2022-09-19T07:26:52;96597.25;;;7.47;100.00
4598;BME280;62772;48.646;8.906;2022-09-19T07:31:56;96606.41;;;7.59;100.00
4598;BME280;62772;48.646;8.906;2022-09-19T07:36:58;96617.94;;;7.74;100.00
4598;BME280;62772;48.646;8.906;2022-09-19T07:42:01;96621.78;;;7.87;100.00
4598;BME280;62772;48.646;8.906;2022-09-19T07:47:34;96626.53;;;7.90;100.00
4598;BME280;62772;48.646;8.906;2022-09-19T07:52:58;96636.06;;;8.15;100.00
4598;BME280;62772;48.646;8.906;2022-09-19T07:58:04;96639.28;;;8.12;100.00
4598;BME280;62772;48.646;8.906;2022-09-19T08:03:14;96648.03;;;7.93;100.00
4598;BME280;62772;48.646;8.906;2022-09-19T08:08:17;96662.22;;;8.08;100.00
4598;BME280;62772;48.646;8.906;2022-09-19T08:13:21;96666.59;;;8.17;100.00
4598;BME280;62772;48.646;8.906;2022-09-19T08:18:22;96657.09;;;8.35;100.00
4598;BME280;62772;48.646;8.906;2022-09-19T08:23:27;96653.44;;;8.69;100.00
4598;BME280;62772;48.646;8.906;2022-09-19T08:28:33;96663.69;;;8.43;100.00
4598;BME280;62772;48.646;8.906;2022-09-19T08:33:38;96662.16;;;8.56;100.00
4598;BME280;62772;48.646;8.906;2022-09-19T08:38:48;96655.97;;;8.80;100.00
4598;BME280;62772;48.646;8.906;2022-09-19T08:44:03;96661.09;;;9.09;100.00
4598;BME280;62772;48.646;8.906;2022-09-19T08:49:11;96667.09;;;9.01;100.00
4598;BME280;62772;48.646;8.906;2022-09-19T08:54:17;96672.22;;;9.30;100.00
4598;BME280;62772;48.646;8.906;2022-09-19T08:59:24;96676.31;;;9.22;100.00
4598;BME280;62772;48.646;8.906;2022-09-19T09:04:32;96684.88;;;9.38;100.00
4598;BME280;62772;48.646;8.906;2022-09-19T09:10:07;96680.53;;;9.10;100.00
4598;BME280;62772;48.646;8.906;2022-09-19T09:15:23;96687.63;;;9.33;100.00
4598;BME280;62772;48.646;8.906;2022-09-19T09:20:40;96685.47;;;9.49;100.00
4598;BME280;62772;48.646;8.906;2022-09-19T09:25:46;96697.53;;;9.47;100.00
4598;BME280;62772;48.646;8.906;2022-09-19T09:31:05;96686.84;;;9.33;100.00
4598;BME280;62772;48.646;8.906;2022-09-19T09:36:13;96689.78;;;9.64;100.00
4598;BME280;62772;48.646;8.906;2022-09-19T09:41:21;96695.19;;;9.59;100.00
4598;BME280;62772;48.646;8.906;2022-09-19T09:46:59;96682.47;;;9.84;100.00
4598;BME280;62772;48.646;8.906;2022-09-19T09:52:21;96696.78;;;9.60;100.00
4598;BME280;62772;48.646;8.906;2022-09-19T09:57:34;96695.81;;;9.84;100.00
4598;BME280;62772;48.646;8.906;2022-09-19T10:02:49;96698.09;;;9.90;100.00
4598;BME280;62772;48.646;8.906;2022-09-19T10:08:17;96696.00;;;10.29;100.00
4598;BME280;62772;48.646;8.906;2022-09-19T10:13:24;96686.53;;;10.09;100.00
4598;BME280;62772;48.646;8.906;2022-09-19T10:18:35;96686.50;;;10.23;100.00
4598;BME280;62772;48.646;8.906;2022-09-19T10:23:42;96696.53;;;10.17;100.00
4598;BME280;62772;48.646;8.906;2022-09-19T10:28:53;96692.75;;;10.46;100.00
4598;BME280;62772;48.646;8.906;2022-09-19T10:34:26;96691.38;;;10.48;100.00
4598;BME280;62772;48.646;8.906;2022-09-19T10:39:28;96695.59;;;10.49;100.00
4598;BME280;62772;48.646;8.906;2022-09-19T10:44:30;96687.16;;;10.70;99.29
4598;BME280;62772;48.646;8.906;2022-09-19T10:49:39;96700.06;;;10.91;100.00
4598;BME280;62772;48.646;8.906;2022-09-19T10:54:46;96702.78;;;10.77;98.66
4598;BME280;62772;48.646;8.906;2022-09-19T10:59:50;96700.75;;;10.96;94.05
4598;BME280;62772;48.646;8.906;2022-09-19T11:05:00;96705.13;;;10.78;94.87
4598;BME280;62772;48.646;8.906;2022-09-19T11:10:28;96710.44;;;10.56;96.63
4598;BME280;62772;48.646;8.906;2022-09-19T11:15:30;96700.06;;;10.91;94.29
4598;BME280;62772;48.646;8.906;2022-09-19T11:20:41;96711.31;;;10.65;94.34
4598;BME280;62772;48.646;8.906;2022-09-19T11:25:57;96710.72;;;11.04;96.19
4598;BME280;62772;48.646;8.906;2022-09-19T11:31:14;96703.97;;;11.52;95.13
4598;BME280;62772;48.646;8.906;2022-09-19T11:36:28;96703.31;;;11.24;94.34
4598;BME280;62772;48.646;8.906;2022-09-19T11:41:39;96706.19;;;10.91;94.19
4598;BME280;62772;48.646;8.906;2022-09-19T11:46:52;96705.13;;;10.78;94.98
4598;BME280;62772;48.646;8.906;2022-09-19T11:52:05;96711.19;;;11.06;94.96
4598;BME280;62772;48.646;8.906;2022-09-19T11:57:19;96706.41;;;10.95;94.27
4598;BME280;62772;48.646;8.906;2022-09-19T12:02:55;96692.59;;;11.24;95.42
4598;BME280;62772;48.646;8.906;2022-09-19T12:08:15;96703.34;;;11.10;96.22
4598;BME280;62772;48.646;8.906;2022-09-19T12:13:22;96696.69;;;11.44;95.69
4598;BME280;62772;48.646;8.906;2022-09-19T12:18:36;96694.38;;;11.29;99.69
4598;BME280;62772;48.646;8.906;2022-09-19T12:23:45;96685.81;;;11.18;100.00
4598;BME280;62772;48.646;8.906;2022-09-19T12:29:14;96692.31;;;10.66;100.00
4598;BME280;62772;48.646;8.906;2022-09-19T12:34:27;96692.78;;;10.82;100.00
4598;BME280;62772;48.646;8.906;2022-09-19T12:39:37;96690.06;;;10.60;100.00
4598;BME280;62772;48.646;8.906;2022-09-19T12:44:43;96688.94;;;10.97;100.00
4598;BME280;62772;48.646;8.906;2022-09-19T12:49:55;96676.31;;;10.89;100.00
4598;BME280;62772;48.646;8.906;2022-09-19T12:55:05;96685.03;;;11.17;100.00
4598;BME280;62772;48.646;8.906;2022-09-19T13:00:08;96682.03;;;11.41;100.00
4598;BME280;62772;48.646;8.906;2022-09-19T13:05:16;96668.31;;;10.89;100.00
4598;BME280;62772;48.646;8.906;2022-09-19T13:10:29;96669.25;;;11.38;100.00
4598;BME280;62772;48.646;8.906;2022-09-19T13:15:43;96669.22;;;11.30;100.00
4598;BME280;62772;48.646;8.906;2022-09-19T13:20:46;96667.94;;;11.27;100.00
4598;BME280;62772;48.646;8.906;2022-09-19T13:26:21;96654.28;;;11.60;100.00
4598;BME280;62772;48.646;8.906;2022-09-19T13:31:26;96660.38;;;11.52;98.23
4598;BME280;62772;48.646;8.906;2022-09-19T13:36:39;96654.47;;;11.72;95.27
4598;BME280;62772;48.646;8.906;2022-09-19T13:41:45;96651.47;;;12.05;95.26
4598;BME280;62772;48.646;8.906;2022-09-19T13:46:54;96656.19;;;12.00;95.33
4598;BME280;62772;48.646;8.906;2022-09-19T13:51:59;96651.09;;;12.38;92.82
4598;BME280;62772;48.646;8.906;2022-09-19T13:57:10;96647.72;;;11.75;92.60
4598;BME280;62772;48.646;8.906;2022-09-19T14:02:19;96648.28;;;11.94;92.20
4598;BME280;62772;48.646;8.906;2022-09-19T14:07:26;96645.97;;;12.10;88.08
4598;BME280;62772;48.646;8.906;2022-09-19T14:12:55;96643.06;;;12.38;91.32
4598;BME280;62772;48.646;8.906;2022-09-19T14:18:26;96648.59;;;12.50;93.68
4598;BME280;62772;48.646;8.906;2022-09-19T14:23:34;96640.03;;;12.22;85.06
4598;BME280;62772;48.646;8.906;2022-09-19T14:28:46;96656.88;;;12.14;86.92
4598;BME280;62772;48.646;8.906;2022-09-19T14:34:20;96648.94;;;12.00;88.07
4598;BME280;62772;48.646;8.906;2022-09-19T14:39:38;96663.94;;;12.10;88.46
4598;BME280;62772;48.646;8.906;2022-09-19T14:50:21;96662.66;;;12.07;86.05
4598;BME280;62772;48.646;8.906;2022-09-19T14:55:26;96659.03;;;12.03;87.48
4598;BME280;62772;48.646;8.906;2022-09-19T15:00:29;96654.69;;;11.85;89.97
4598;BME280;62772;48.646;8.906;2022-09-19T15:05:34;96649.94;;;11.82;89.36
4598;BME280;62772;48.646;8.906;2022-09-19T15:10:38;96653.75;;;11.89;86.49
4598;BME280;62772;48.646;8.906;2022-09-19T15:15:41;96648.78;;;11.96;86.01
4598;BME280;62772;48.646;8.906;2022-09-19T15:20:50;96652.22;;;11.57;88.28
4598;BME280;62772;48.646;8.906;2022-09-19T15:25:57;96654.38;;;11.46;89.27
4598;BME280;62772;48.646;8.906;2022-09-19T15:30:59;96666.31;;;11.17;92.29
4598;BME280;62772;48.646;8.906;2022-09-19T15:36:02;96673.88;;;10.79;100.00
4598;BME280;62772;48.646;8.906;2022-09-19T15:41:05;96658.28;;;11.17;100.00
4598;BME280;62772;48.646;8.906;2022-09-19T15:51:56;96653.00;;;11.57;100.00
4598;BME280;62772;48.646;8.906;2022-09-19T15:57:12;96653.53;;;11.37;100.00
4598;BME280;62772;48.646;8.906;2022-09-19T16:02:16;96648.47;;;11.35;100.00
4598;BME280;62772;48.646;8.906;2022-09-19T16:07:26;96643.19;;;11.44;100.00
4598;BME280;62772;48.646;8.906;2022-09-19T16:12:47;96649.69;;;11.29;100.00
4598;BME280;62772;48.646;8.906;2022-09-19T16:18:06;96649.75;;;11.38;100.00
4598;BME280;62772;48.646;8.906;2022-09-19T16:23:15;96657.06;;;11.23;100.00
4598;BME280;62772;48.646;8.906;2022-09-19T16:28:21;96652.59;;;10.51;100.00
4598;BME280;62772;48.646;8.906;2022-09-19T16:33:30;96647.34;;;10.60;100.00
4598;BME280;62772;48.646;8.906;2022-09-19T16:38:35;96648.56;;;10.40;100.00
4598;BME280;62772;48.646;8.906;2022-09-19T16:43:38;96651.53;;;10.97;100.00
4598;BME280;62772;48.646;8.906;2022-09-19T16:48:39;96667.53;;;11.11;100.00
4598;BME280;62772;48.646;8.906;2022-09-19T16:53:42;96665.09;;;11.23;100.00
4598;BME280;62772;48.646;8.906;2022-09-19T16:58:45;96667.56;;;10.97;100.00
4598;BME280;62772;48.646;8.906;2022-09-19T17:03:46;96674.41;;;10.67;100.00
4598;BME280;62772;48.646;8.906;2022-09-19T17:08:49;96683.97;;;10.45;100.00
4598;BME280;62772;48.646;8.906;2022-09-19T17:13:50;96692.28;;;10.80;100.00
4598;BME280;62772;48.646;8.906;2022-09-19T17:18:51;96688.59;;;10.40;100.00
4598;BME280;62772;48.646;8.906;2022-09-19T17:23:54;96694.63;;;10.31;100.00
4598;BME280;62772;48.646;8.906;2022-09-19T17:28:55;96699.91;;;10.73;100.00
4598;BME280;62772;48.646;8.906;2022-09-19T17:33:56;96706.31;;;10.86;100.00
4598;BME280;62772;48.646;8.906;2022-09-19T17:38:59;96699.16;;;10.95;100.00
4598;BME280;62772;48.646;8.906;2022-09-19T17:44:01;96697.28;;;10.96;100.00
4598;BME280;62772;48.646;8.906;2022-09-19T17:49:02;96697.03;;;10.83;100.00
4598;BME280;62772;48.646;8.906;2022-09-19T17:54:06;96689.31;;;10.82;100.00
4598;BME280;62772;48.646;8.906;2022-09-19T17:59:08;96690.63;;;10.70;100.00
4598;BME280;62772;48.646;8.906;2022-09-19T18:04:09;96702.41;;;10.69;100.00
4598;BME280;62772;48.646;8.906;2022-09-19T18:09:13;96706.03;;;10.74;100.00
4598;BME280;62772;48.646;8.906;2022-09-19T18:14:14;96711.38;;;10.74;100.00
4598;BME280;62772;48.646;8.906;2022-09-19T18:19:16;96719.47;;;10.46;100.00
4598;BME280;62772;48.646;8.906;2022-09-19T18:24:20;96723.13;;;10.50;100.00
4598;BME280;62772;48.646;8.906;2022-09-19T18:29:22;96734.75;;;9.98;100.00
4598;BME280;62772;48.646;8.906;2022-09-19T18:34:23;96733.09;;;10.03;100.00
4598;BME280;62772;48.646;8.906;2022-09-19T18:39:26;96735.25;;;10.14;100.00
4598;BME280;62772;48.646;8.906;2022-09-19T18:44:27;96733.06;;;9.89;100.00
4598;BME280;62772;48.646;8.906;2022-09-19T18:49:27;96736.88;;;9.69;100.00
4598;BME280;62772;48.646;8.906;2022-09-19T18:54:31;96741.63;;;9.58;100.00
4598;BME280;62772;48.646;8.906;2022-09-19T18:59:34;96734.91;;;9.74;100.00
4598;BME280;62772;48.646;8.906;2022-09-19T19:04:35;96736.03;;;9.87;100.00
4598;BME280;62772;48.646;8.906;2022-09-19T19:09:38;96741.47;;;8.78;100.00
4598;BME280;62772;48.646;8.906;2022-09-19T19:14:39;96752.50;;;9.42;100.00
4598;BME280;62772;48.646;8.906;2022-09-19T19:19:42;96748.16;;;9.14;100.00
4598;BME280;62772;48.646;8.906;2022-09-19T19:24:45;96745.91;;;9.21;100.00
4598;BME280;62772;48.646;8.906;2022-09-19T19:29:46;96749.50;;;9.30;100.00
4598;BME280;62772;48.646;8.906;2022-09-19T19:34:46;96755.75;;;9.39;100.00
4598;BME280;62772;48.646;8.906;2022-09-19T19:39:51;96756.53;;;9.40;100.00
4598;BME280;62772;48.646;8.906;2022-09-19T19:44:51;96756.34;;;9.36;100.00
4598;BME280;62772;48.646;8.906;2022-09-19T19:49:52;96755.41;;;9.27;100.00
4598;BME280;62772;48.646;8.906;2022-09-19T19:54:56;96751.75;;;9.23;100.00
4598;BME280;62772;48.646;8.906;2022-09-19T19:59:57;96747.66;;;9.12;100.00
4598;BME280;62772;48.646;8.906;2022-09-19T20:04:58;96758.53;;;9.15;100.00
4598;BME280;62772;48.646;8.906;2022-09-19T20:10:01;96760.25;;;9.06;100.00
4598;BME280;62772;48.646;8.906;2022-09-19T20:15:03;96759.53;;;9.00;100.00
4598;BME280;62772;48.646;8.906;2022-09-19T20:20:04;96763.41;;;8.89;100.00
4598;BME280;62772;48.646;8.906;2022-09-19T20:25:07;96758.53;;;8.77;100.00
4598;BME280;62772;48.646;8.906;2022-09-19T20:30:09;96761.25;;;8.72;100.00
4598;BME280;62772;48.646;8.906;2022-09-19T20:35:10;96760.25;;;8.68;100.00
4598;BME280;62772;48.646;8.906;2022-09-19T20:40:13;96762.19;;;8.62;100.00
4598;BME280;62772;48.646;8.906;2022-09-19T20:45:14;96754.19;;;8.62;100.00
4598;BME280;62772;48.646;8.906;2022-09-19T20:50:16;96751.75;;;8.66;100.00
4598;BME280;62772;48.646;8.906;2022-09-19T20:55:20;96750.13;;;8.46;100.00
4598;BME280;62772;48.646;8.906;2022-09-19T21:00:21;96757.66;;;8.39;100.00
4598;BME280;62772;48.646;8.906;2022-09-19T21:05:21;96757.47;;;8.30;100.00
4598;BME280;62772;48.646;8.906;2022-09-19T21:10:25;96752.50;;;8.23;100.00
4598;BME280;62772;48.646;8.906;2022-09-19T21:15:25;96751.94;;;8.02;100.00
4598;BME280;62772;48.646;8.906;2022-09-19T21:20:26;96754.31;;;8.04;100.00
4598;BME280;62772;48.646;8.906;2022-09-19T21:25:29;96748.72;;;8.05;100.00
4598;BME280;62772;48.646;8.906;2022-09-19T21:30:30;96757.25;;;8.02;100.00
4598;BME280;62772;48.646;8.906;2022-09-19T21:35:31;96758.09;;;7.97;100.00
4598;BME280;62772;48.646;8.906;2022-09-19T21:40:34;96754.94;;;7.95;100.00
4598;BME280;62772;48.646;8.906;2022-09-19T21:45:34;96758.66;;;8.18;100.00
4598;BME280;62772;48.646;8.906;2022-09-19T21:50:35;96751.81;;;7.88;100.00
4598;BME280;62772;48.646;8.906;2022-09-19T21:55:38;96752.91;;;7.82;100.00
4598;BME280;62772;48.646;8.906;2022-09-19T22:00:39;96756.75;;;7.71;100.00
4598;BME280;62772;48.646;8.906;2022-09-19T22:05:40;96764.78;;;7.66;100.00
4598;BME280;62772;48.646;8.906;2022-09-19T22:10:43;96762.16;;;7.60;100.00
4598;BME280;62772;48.646;8.906;2022-09-19T22:15:44;96769.38;;;7.55;100.00
4598;BME280;62772;48.646;8.906;2022-09-19T22:20:45;96774.47;;;7.51;100.00
4598;BME280;62772;48.646;8.906;2022-09-19T22:25:48;96766.22;;;7.53;100.00
4598;BME280;62772;48.646;8.906;2022-09-19T22:30:57;96768.91;;;7.48;100.00
4598;BME280;62772;48.646;8.906;2022-09-19T22:36:04;96763.34;;;7.44;100.00
4598;BME280;62772;48.646;8.906;2022-09-19T22:41:12;96772.25;;;7.29;100.00
4598;BME280;62772;48.646;8.906;2022-09-19T22:46:14;96764.88;;;7.21;100.00
4598;BME280;62772;48.646;8.906;2022-09-19T22:51:17;96763.91;;;7.06;100.00
4598;BME280;62772;48.646;8.906;2022-09-19T22:56:25;96763.72;;;7.32;100.00
4598;BME280;62772;48.646;8.906;2022-09-19T23:01:30;96758.50;;;7.17;100.00
4598;BME280;62772;48.646;8.906;2022-09-19T23:06:32;96765.97;;;7.15;100.00
4598;BME280;62772;48.646;8.906;2022-09-19T23:11:37;96760.94;;;7.13;100.00
4598;BME280;62772;48.646;8.906;2022-09-19T23:16:40;96757.84;;;6.96;100.00
4598;BME280;62772;48.646;8.906;2022-09-19T23:21:43;96764.53;;;6.88;100.00
4598;BME280;62772;48.646;8.906;2022-09-19T23:26:46;96761.84;;;6.33;100.00
4598;BME280;62772;48.646;8.906;2022-09-19T23:31:47;96757.22;;;5.73;100.00
4598;BME280;62772;48.646;8.906;2022-09-19T23:36:49;96765.94;;;5.79;100.00
4598;BME280;62772;48.646;8.906;2022-09-19T23:41:54;96760.03;;;6.28;100.00
4598;BME280;62772;48.646;8.906;2022-09-19T23:46:55;96753.09;;;6.38;100.00
4598;BME280;62772;48.646;8.906;2022-09-19T23:51:56;96750.50;;;6.17;100.00
4598;BME280;62772;48.646;8.906;2022-09-19T23:57:00;96757.44;;;5.92;100.00
